sensor_id;sensor_type;location;lat;lon;timestamp;temperature;humidity
22838;DHT22;11585;51.450;-0.240;2023-05-28T00:01:33;16.90;99.90
22838;DHT22;11585;51.450;-0.240;2023-05-28T00:03:58;16.90;99.90
22838;DHT22;11585;51.450;-0.240;2023-05-28T00:06:24;16.80;99.90
22838;DHT22;11585;51.450;-0.240;2023-05-28T00:08:50;16.80;99.90
22838;DHT22;11585;51.450;-0.240;2023-05-28T00:11:15;16.80;99.90
22838;DHT22;11585;51.450;-0.240;2023-05-28T00:13:41;16.80;99.90
22838;DHT22;11585;51.450;-0.240;2023-05-28T00:16:07;16.80;99.90
22838;DHT22;11585;51.450;-0.240;2023-05-28T00:18:33;16.70;99.90
22838;DHT22;11585;51.450;-0.240;2023-05-28T00:20:58;16.70;99.90
22838;DHT22;11585;51.450;-0.240;2023-05-28T00:23:24;16.70;99.90
22838;DHT22;11585;51.450;-0.240;2023-05-28T00:25:50;16.60;99.90
22838;DHT22;11585;51.450;-0.240;2023-05-28T00:28:16;16.60;99.90
22838;DHT22;11585;51.450;-0.240;2023-05-28T00:30:42;16.60;99.90
22838;DHT22;11585;51.450;-0.240;2023-05-28T00:33:08;16.60;99.90
22838;DHT22;11585;51.450;-0.240;2023-05-28T00:35:34;16.50;99.90
22838;DHT22;11585;51.450;-0.240;2023-05-28T00:37:59;16.50;99.90
22838;DHT22;11585;51.450;-0.240;2023-05-28T00:40:25;16.50;99.90
22838;DHT22;11585;51.450;-0.240;2023-05-28T00:42:51;16.40;99.90
22838;DHT22;11585;51.450;-0.240;2023-05-28T00:45:17;16.40;99.90
22838;DHT22;11585;51.450;-0.240;2023-05-28T00:47:43;16.40;99.90
22838;DHT22;11585;51.450;-0.240;2023-05-28T00:50:11;16.40;99.90
22838;DHT22;11585;51.450;-0.240;2023-05-28T00:52:43;16.30;99.90
22838;DHT22;11585;51.450;-0.240;2023-05-28T00:55:15;16.30;99.90
22838;DHT22;11585;51.450;-0.240;2023-05-28T00:57:42;16.30;99.90
22838;DHT22;11585;51.450;-0.240;2023-05-28T01:00:09;16.20;99.90
22838;DHT22;11585;51.450;-0.240;2023-05-28T01:02:35;16.20;99.90
22838;DHT22;11585;51.450;-0.240;2023-05-28T01:05:01;16.20;99.90
22838;DHT22;11585;51.450;-0.240;2023-05-28T01:07:27;16.20;99.90
22838;DHT22;11585;51.450;-0.240;2023-05-28T01:10:13;16.10;99.90
22838;DHT22;11585;51.450;-0.240;2023-05-28T01:12:39;16.10;99.90
22838;DHT22;11585;51.450;-0.240;2023-05-28T01:15:07;16.10;99.90
22838;DHT22;11585;51.450;-0.240;2023-05-28T01:17:33;16.00;99.90
22838;DHT22;11585;51.450;-0.240;2023-05-28T01:20:03;16.00;99.90
22838;DHT22;11585;51.450;-0.240;2023-05-28T01:22:45;16.00;99.90
22838;DHT22;11585;51.450;-0.240;2023-05-28T01:25:12;15.90;99.90
22838;DHT22;11585;51.450;-0.240;2023-05-28T01:27:41;15.90;99.90
22838;DHT22;11585;51.450;-0.240;2023-05-28T01:30:10;15.90;99.90
22838;DHT22;11585;51.450;-0.240;2023-05-28T01:32:37;15.90;99.90
22838;DHT22;11585;51.450;-0.240;2023-05-28T01:35:07;15.80;99.90
22838;DHT22;11585;51.450;-0.240;2023-05-28T01:37:36;15.80;99.90
22838;DHT22;11585;51.450;-0.240;2023-05-28T01:43:25;15.70;99.90
22838;DHT22;11585;51.450;-0.240;2023-05-28T01:45:51;15.70;99.90
22838;DHT22;11585;51.450;-0.240;2023-05-28T01:48:17;15.70;99.90
22838;DHT22;11585;51.450;-0.240;2023-05-28T01:54:04;15.60;99.90
22838;DHT22;11585;51.450;-0.240;2023-05-28T01:56:30;15.60;99.90
22838;DHT22;11585;51.450;-0.240;2023-05-28T01:58:56;15.60;99.90
22838;DHT22;11585;51.450;-0.240;2023-05-28T02:01:29;15.60;99.90
22838;DHT22;11585;51.450;-0.240;2023-05-28T02:03:59;15.50;99.90
22838;DHT22;11585;51.450;-0.240;2023-05-28T02:06:29;15.50;99.90
22838;DHT22;11585;51.450;-0.240;2023-05-28T02:15:39;15.40;99.90
22838;DHT22;11585;51.450;-0.240;2023-05-28T02:18:05;15.30;99.90
22838;DHT22;11585;51.450;-0.240;2023-05-28T02:23:52;15.30;99.90
22838;DHT22;11585;51.450;-0.240;2023-05-28T02:26:18;15.20;99.90
22838;DHT22;11585;51.450;-0.240;2023-05-28T02:28:44;15.20;99.90
22838;DHT22;11585;51.450;-0.240;2023-05-28T02:31:10;15.20;99.90
22838;DHT22;11585;51.450;-0.240;2023-05-28T02:33:40;15.20;99.90
22838;DHT22;11585;51.450;-0.240;2023-05-28T02:36:09;15.10;99.90
22838;DHT22;11585;51.450;-0.240;2023-05-28T02:38:39;15.10;99.90
22838;DHT22;11585;51.450;-0.240;2023-05-28T02:41:05;15.10;99.90
22838;DHT22;11585;51.450;-0.240;2023-05-28T02:43:31;15.00;99.90
22838;DHT22;11585;51.450;-0.240;2023-05-28T02:45:56;15.00;99.90
22838;DHT22;11585;51.450;-0.240;2023-05-28T02:48:22;15.00;99.90
22838;DHT22;11585;51.450;-0.240;2023-05-28T02:51:07;14.90;99.90
22838;DHT22;11585;51.450;-0.240;2023-05-28T02:53:33;14.90;99.90
22838;DHT22;11585;51.450;-0.240;2023-05-28T02:55:59;14.90;99.90
22838;DHT22;11585;51.450;-0.240;2023-05-28T02:58:24;14.90;99.90
22838;DHT22;11585;51.450;-0.240;2023-05-28T03:00:51;14.80;99.90
22838;DHT22;11585;51.450;-0.240;2023-05-28T03:03:17;14.80;99.90
22838;DHT22;11585;51.450;-0.240;2023-05-28T03:05:42;14.80;99.90
22838;DHT22;11585;51.450;-0.240;2023-05-28T03:08:08;14.80;99.90
22838;DHT22;11585;51.450;-0.240;2023-05-28T03:10:54;14.70;99.90
22838;DHT22;11585;51.450;-0.240;2023-05-28T03:13:19;14.70;99.90
22838;DHT22;11585;51.450;-0.240;2023-05-28T03:15:45;14.70;99.90
22838;DHT22;11585;51.450;-0.240;2023-05-28T03:18:10;14.60;99.90
22838;DHT22;11585;51.450;-0.240;2023-05-28T03:23:58;14.60;99.90
22838;DHT22;11585;51.450;-0.240;2023-05-28T03:26:24;14.60;99.90
22838;DHT22;11585;51.450;-0.240;2023-05-28T03:29:08;14.50;99.90
22838;DHT22;11585;51.450;-0.240;2023-05-28T03:31:43;14.50;99.90
22838;DHT22;11585;51.450;-0.240;2023-05-28T03:34:09;14.50;99.90
22838;DHT22;11585;51.450;-0.240;2023-05-28T03:36:35;14.50;99.90
22838;DHT22;11585;51.450;-0.240;2023-05-28T03:39:04;14.40;99.90
22838;DHT22;11585;51.450;-0.240;2023-05-28T03:41:30;14.50;99.90
22838;DHT22;11585;51.450;-0.240;2023-05-28T03:43:56;14.40;99.90
22838;DHT22;11585;51.450;-0.240;2023-05-28T03:46:21;14.40;99.90
22838;DHT22;11585;51.450;-0.240;2023-05-28T03:48:47;14.40;99.90
22838;DHT22;11585;51.450;-0.240;2023-05-28T03:51:12;14.30;99.90
22838;DHT22;11585;51.450;-0.240;2023-05-28T03:53:38;14.40;99.90
22838;DHT22;11585;51.450;-0.240;2023-05-28T03:56:04;14.30;99.90
22838;DHT22;11585;51.450;-0.240;2023-05-28T03:58:31;14.30;99.90
22838;DHT22;11585;51.450;-0.240;2023-05-28T04:00:56;14.30;99.90
22838;DHT22;11585;51.450;-0.240;2023-05-28T04:03:22;14.30;99.90
22838;DHT22;11585;51.450;-0.240;2023-05-28T04:05:47;14.20;99.90
22838;DHT22;11585;51.450;-0.240;2023-05-28T04:08:13;14.20;99.90
22838;DHT22;11585;51.450;-0.240;2023-05-28T04:14:01;14.20;99.90
22838;DHT22;11585;51.450;-0.240;2023-05-28T04:16:27;14.20;99.90
22838;DHT22;11585;51.450;-0.240;2023-05-28T04:19:11;14.10;99.90
22838;DHT22;11585;51.450;-0.240;2023-05-28T04:21:37;14.10;99.90
22838;DHT22;11585;51.450;-0.240;2023-05-28T04:24:03;14.00;99.90
22838;DHT22;11585;51.450;-0.240;2023-05-28T04:26:28;14.00;99.90
22838;DHT22;11585;51.450;-0.240;2023-05-28T04:28:55;14.00;99.90
22838;DHT22;11585;51.450;-0.240;2023-05-28T04:31:20;14.00;99.90
22838;DHT22;11585;51.450;-0.240;2023-05-28T04:33:46;14.00;99.90
22838;DHT22;11585;51.450;-0.240;2023-05-28T04:36:12;14.00;99.90
22838;DHT22;11585;51.450;-0.240;2023-05-28T04:38:42;14.00;99.90
22838;DHT22;11585;51.450;-0.240;2023-05-28T04:41:07;14.00;99.90
22838;DHT22;11585;51.450;-0.240;2023-05-28T04:43:34;13.90;99.90
22838;DHT22;11585;51.450;-0.240;2023-05-28T04:46:01;13.90;99.90
22838;DHT22;11585;51.450;-0.240;2023-05-28T04:48:29;13.90;99.90
22838;DHT22;11585;51.450;-0.240;2023-05-28T04:50:57;13.80;99.90
22838;DHT22;11585;51.450;-0.240;2023-05-28T04:53:22;13.90;99.90
22838;DHT22;11585;51.450;-0.240;2023-05-28T04:55:48;13.80;99.90
22838;DHT22;11585;51.450;-0.240;2023-05-28T04:58:14;13.80;99.90
22838;DHT22;11585;51.450;-0.240;2023-05-28T05:00:59;13.80;99.90
22838;DHT22;11585;51.450;-0.240;2023-05-28T05:03:25;13.80;99.90
22838;DHT22;11585;51.450;-0.240;2023-05-28T05:05:51;13.80;99.90
22838;DHT22;11585;51.450;-0.240;2023-05-28T05:08:16;13.80;99.90
22838;DHT22;11585;51.450;-0.240;2023-05-28T05:14:04;13.80;99.90
22838;DHT22;11585;51.450;-0.240;2023-05-28T05:16:30;13.70;99.90
22838;DHT22;11585;51.450;-0.240;2023-05-28T05:19:15;13.70;99.90
22838;DHT22;11585;51.450;-0.240;2023-05-28T05:21:40;13.70;99.90
22838;DHT22;11585;51.450;-0.240;2023-05-28T05:24:06;13.70;99.90
22838;DHT22;11585;51.450;-0.240;2023-05-28T05:26:31;13.70;99.90
22838;DHT22;11585;51.450;-0.240;2023-05-28T05:28:57;13.70;99.90
22838;DHT22;11585;51.450;-0.240;2023-05-28T05:31:23;13.70;99.90
22838;DHT22;11585;51.450;-0.240;2023-05-28T05:33:48;13.70;99.90
22838;DHT22;11585;51.450;-0.240;2023-05-28T05:36:14;13.70;99.90
22838;DHT22;11585;51.450;-0.240;2023-05-28T05:38:42;13.70;99.90
22838;DHT22;11585;51.450;-0.240;2023-05-28T05:41:10;13.80;99.90
22838;DHT22;11585;51.450;-0.240;2023-05-28T05:43:35;13.70;99.90
22838;DHT22;11585;51.450;-0.240;2023-05-28T05:46:01;13.70;99.90
22838;DHT22;11585;51.450;-0.240;2023-05-28T05:48:27;13.70;99.90
22838;DHT22;11585;51.450;-0.240;2023-05-28T05:50:53;13.80;99.90
22838;DHT22;11585;51.450;-0.240;2023-05-28T05:53:21;13.80;99.90
22838;DHT22;11585;51.450;-0.240;2023-05-28T05:55:47;13.80;99.90
22838;DHT22;11585;51.450;-0.240;2023-05-28T05:58:13;13.80;99.90
22838;DHT22;11585;51.450;-0.240;2023-05-28T06:03:28;13.90;99.90
22838;DHT22;11585;51.450;-0.240;2023-05-28T06:05:54;13.90;99.90
22838;DHT22;11585;51.450;-0.240;2023-05-28T06:08:20;14.00;99.90
22838;DHT22;11585;51.450;-0.240;2023-05-28T06:10:47;14.00;99.90
22838;DHT22;11585;51.450;-0.240;2023-05-28T06:13:16;14.10;99.90
22838;DHT22;11585;51.450;-0.240;2023-05-28T06:15:43;14.10;99.90
22838;DHT22;11585;51.450;-0.240;2023-05-28T06:18:10;14.10;99.90
22838;DHT22;11585;51.450;-0.240;2023-05-28T06:20:54;14.10;99.90
22838;DHT22;11585;51.450;-0.240;2023-05-28T06:23:21;14.20;99.90
22838;DHT22;11585;51.450;-0.240;2023-05-28T06:25:46;14.20;99.90
22838;DHT22;11585;51.450;-0.240;2023-05-28T06:28:12;14.20;99.90
22838;DHT22;11585;51.450;-0.240;2023-05-28T06:34:01;14.30;99.90
22838;DHT22;11585;51.450;-0.240;2023-05-28T06:36:28;14.30;99.90
22838;DHT22;11585;51.450;-0.240;2023-05-28T06:39:14;14.40;99.90
22838;DHT22;11585;51.450;-0.240;2023-05-28T06:41:40;14.40;99.90
22838;DHT22;11585;51.450;-0.240;2023-05-28T06:44:06;14.50;99.90
22838;DHT22;11585;51.450;-0.240;2023-05-28T06:46:32;14.50;99.90
22838;DHT22;11585;51.450;-0.240;2023-05-28T06:52:19;14.70;99.90
22838;DHT22;11585;51.450;-0.240;2023-05-28T06:54:45;14.70;99.90
22838;DHT22;11585;51.450;-0.240;2023-05-28T06:57:11;14.80;99.90
22838;DHT22;11585;51.450;-0.240;2023-05-28T06:59:58;14.80;99.90
22838;DHT22;11585;51.450;-0.240;2023-05-28T07:02:23;15.00;99.90
22838;DHT22;11585;51.450;-0.240;2023-05-28T07:04:49;15.10;99.90
22838;DHT22;11585;51.450;-0.240;2023-05-28T07:07:15;15.10;99.90
22838;DHT22;11585;51.450;-0.240;2023-05-28T07:09:43;15.20;99.90
22838;DHT22;11585;51.450;-0.240;2023-05-28T07:12:08;15.30;99.90
22838;DHT22;11585;51.450;-0.240;2023-05-28T07:14:35;15.40;99.90
22838;DHT22;11585;51.450;-0.240;2023-05-28T07:17:01;15.50;99.90
22838;DHT22;11585;51.450;-0.240;2023-05-28T07:22:50;15.60;99.90
22838;DHT22;11585;51.450;-0.240;2023-05-28T07:25:15;15.70;99.90
22838;DHT22;11585;51.450;-0.240;2023-05-28T07:27:41;15.80;99.90
22838;DHT22;11585;51.450;-0.240;2023-05-28T07:30:09;15.80;99.90
22838;DHT22;11585;51.450;-0.240;2023-05-28T07:32:35;15.90;99.90
22838;DHT22;11585;51.450;-0.240;2023-05-28T07:35:01;16.00;99.90
22838;DHT22;11585;51.450;-0.240;2023-05-28T07:37:26;16.00;99.90
22838;DHT22;11585;51.450;-0.240;2023-05-28T07:39:56;16.10;99.90
22838;DHT22;11585;51.450;-0.240;2023-05-28T07:42:21;16.20;99.90
22838;DHT22;11585;51.450;-0.240;2023-05-28T07:44:47;16.20;99.90
22838;DHT22;11585;51.450;-0.240;2023-05-28T07:47:13;16.30;99.90
22838;DHT22;11585;51.450;-0.240;2023-05-28T07:56:05;16.40;99.90
22838;DHT22;11585;51.450;-0.240;2023-05-28T07:58:31;16.40;99.90
22838;DHT22;11585;51.450;-0.240;2023-05-28T08:00:57;16.50;99.90
22838;DHT22;11585;51.450;-0.240;2023-05-28T08:03:22;16.50;99.90
22838;DHT22;11585;51.450;-0.240;2023-05-28T08:05:49;16.60;99.90
22838;DHT22;11585;51.450;-0.240;2023-05-28T08:08:15;16.60;99.90
22838;DHT22;11585;51.450;-0.240;2023-05-28T08:14:02;16.70;99.90
22838;DHT22;11585;51.450;-0.240;2023-05-28T08:16:28;16.70;99.90
22838;DHT22;11585;51.450;-0.240;2023-05-28T08:18:54;16.80;99.90
22838;DHT22;11585;51.450;-0.240;2023-05-28T08:21:19;16.80;99.90
22838;DHT22;11585;51.450;-0.240;2023-05-28T08:23:45;16.80;99.90
22838;DHT22;11585;51.450;-0.240;2023-05-28T08:26:11;16.90;99.90
22838;DHT22;11585;51.450;-0.240;2023-05-28T08:28:36;16.90;99.90
22838;DHT22;11585;51.450;-0.240;2023-05-28T08:31:02;17.00;99.90
22838;DHT22;11585;51.450;-0.240;2023-05-28T08:33:28;17.00;99.90
22838;DHT22;11585;51.450;-0.240;2023-05-28T08:35:53;17.00;99.90
22838;DHT22;11585;51.450;-0.240;2023-05-28T08:38:19;17.10;99.90
22838;DHT22;11585;51.450;-0.240;2023-05-28T08:40:50;17.10;99.90
22838;DHT22;11585;51.450;-0.240;2023-05-28T08:43:18;17.20;99.90
22838;DHT22;11585;51.450;-0.240;2023-05-28T08:45:44;17.20;99.90
22838;DHT22;11585;51.450;-0.240;2023-05-28T08:48:11;17.20;99.90
22838;DHT22;11585;51.450;-0.240;2023-05-28T08:50:42;17.30;99.90
22838;DHT22;11585;51.450;-0.240;2023-05-28T08:53:15;17.30;99.90
22838;DHT22;11585;51.450;-0.240;2023-05-28T08:55:44;17.30;99.90
22838;DHT22;11585;51.450;-0.240;2023-05-28T08:58:10;17.40;99.90
22838;DHT22;11585;51.450;-0.240;2023-05-28T09:00:40;17.50;99.90
22838;DHT22;11585;51.450;-0.240;2023-05-28T09:03:07;17.50;99.90
22838;DHT22;11585;51.450;-0.240;2023-05-28T09:05:37;17.50;99.90
22838;DHT22;11585;51.450;-0.240;2023-05-28T09:08:07;17.60;99.90
22838;DHT22;11585;51.450;-0.240;2023-05-28T09:13:55;17.70;99.90
22838;DHT22;11585;51.450;-0.240;2023-05-28T09:16:23;17.70;99.90
22838;DHT22;11585;51.450;-0.240;2023-05-28T09:18:50;17.70;99.90
22838;DHT22;11585;51.450;-0.240;2023-05-28T09:21:18;17.80;99.90
22838;DHT22;11585;51.450;-0.240;2023-05-28T09:23:44;17.80;99.90
22838;DHT22;11585;51.450;-0.240;2023-05-28T09:26:12;17.90;99.90
22838;DHT22;11585;51.450;-0.240;2023-05-28T09:28:42;17.90;99.90
22838;DHT22;11585;51.450;-0.240;2023-05-28T09:31:08;18.00;99.90
22838;DHT22;11585;51.450;-0.240;2023-05-28T09:33:34;18.00;99.90
22838;DHT22;11585;51.450;-0.240;2023-05-28T09:36:02;18.00;99.90
22838;DHT22;11585;51.450;-0.240;2023-05-28T09:38:43;18.10;99.90
22838;DHT22;11585;51.450;-0.240;2023-05-28T09:41:28;18.20;99.90
22838;DHT22;11585;51.450;-0.240;2023-05-28T09:44:01;18.20;99.90
22838;DHT22;11585;51.450;-0.240;2023-05-28T09:46:34;18.30;99.90
22838;DHT22;11585;51.450;-0.240;2023-05-28T09:51:51;18.40;99.90
22838;DHT22;11585;51.450;-0.240;2023-05-28T09:54:18;18.40;99.90
22838;DHT22;11585;51.450;-0.240;2023-05-28T09:56:47;18.40;99.90
22838;DHT22;11585;51.450;-0.240;2023-05-28T09:59:15;18.50;99.90
22838;DHT22;11585;51.450;-0.240;2023-05-28T10:04:17;18.50;99.90
22838;DHT22;11585;51.450;-0.240;2023-05-28T10:06:45;18.60;99.90
22838;DHT22;11585;51.450;-0.240;2023-05-28T10:09:15;18.60;99.90
22838;DHT22;11585;51.450;-0.240;2023-05-28T10:11:43;18.70;99.90
22838;DHT22;11585;51.450;-0.240;2023-05-28T10:14:10;18.70;99.90
22838;DHT22;11585;51.450;-0.240;2023-05-28T10:16:36;18.70;99.90
22838;DHT22;11585;51.450;-0.240;2023-05-28T10:19:21;18.80;99.90
22838;DHT22;11585;51.450;-0.240;2023-05-28T10:21:47;18.90;99.90
22838;DHT22;11585;51.450;-0.240;2023-05-28T10:24:13;18.90;99.90
22838;DHT22;11585;51.450;-0.240;2023-05-28T10:26:38;19.00;99.90
22838;DHT22;11585;51.450;-0.240;2023-05-28T10:29:07;19.00;99.90
22838;DHT22;11585;51.450;-0.240;2023-05-28T10:31:33;19.00;99.90
22838;DHT22;11585;51.450;-0.240;2023-05-28T10:33:58;19.00;99.90
22838;DHT22;11585;51.450;-0.240;2023-05-28T10:36:24;19.10;99.90
22838;DHT22;11585;51.450;-0.240;2023-05-28T10:42:17;19.20;99.90
22838;DHT22;11585;51.450;-0.240;2023-05-28T10:45:05;19.20;99.90
22838;DHT22;11585;51.450;-0.240;2023-05-28T10:47:50;19.30;99.90
22838;DHT22;11585;51.450;-0.240;2023-05-28T10:50:17;19.30;99.90
22838;DHT22;11585;51.450;-0.240;2023-05-28T10:53:02;19.40;99.90
22838;DHT22;11585;51.450;-0.240;2023-05-28T10:55:28;19.40;99.90
22838;DHT22;11585;51.450;-0.240;2023-05-28T10:58:06;19.50;99.90
22838;DHT22;11585;51.450;-0.240;2023-05-28T11:03:44;19.50;99.90
22838;DHT22;11585;51.450;-0.240;2023-05-28T11:06:11;19.60;99.90
22838;DHT22;11585;51.450;-0.240;2023-05-28T11:08:57;19.60;99.90
22838;DHT22;11585;51.450;-0.240;2023-05-28T11:11:24;19.70;99.90
22838;DHT22;11585;51.450;-0.240;2023-05-28T11:13:50;19.70;99.90
22838;DHT22;11585;51.450;-0.240;2023-05-28T11:16:18;19.80;99.90
22838;DHT22;11585;51.450;-0.240;2023-05-28T11:21:54;19.90;99.90
22838;DHT22;11585;51.450;-0.240;2023-05-28T11:24:23;19.90;99.90
22838;DHT22;11585;51.450;-0.240;2023-05-28T11:26:51;20.00;99.90
22838;DHT22;11585;51.450;-0.240;2023-05-28T11:29:19;20.10;99.90
22838;DHT22;11585;51.450;-0.240;2023-05-28T11:31:44;20.10;99.90
22838;DHT22;11585;51.450;-0.240;2023-05-28T11:34:10;20.20;99.90
22838;DHT22;11585;51.450;-0.240;2023-05-28T11:36:43;20.20;99.90
22838;DHT22;11585;51.450;-0.240;2023-05-28T11:39:10;20.30;99.90
22838;DHT22;11585;51.450;-0.240;2023-05-28T11:41:36;20.30;99.90
22838;DHT22;11585;51.450;-0.240;2023-05-28T11:44:02;20.30;99.90
22838;DHT22;11585;51.450;-0.240;2023-05-28T11:46:28;20.40;99.90
22838;DHT22;11585;51.450;-0.240;2023-05-28T11:51:58;20.50;99.90
22838;DHT22;11585;51.450;-0.240;2023-05-28T11:54:23;20.50;99.90
22838;DHT22;11585;51.450;-0.240;2023-05-28T11:56:52;20.60;99.90
22838;DHT22;11585;51.450;-0.240;2023-05-28T11:59:23;20.60;99.90
22838;DHT22;11585;51.450;-0.240;2023-05-28T12:01:52;20.70;99.90
22838;DHT22;11585;51.450;-0.240;2023-05-28T12:04:22;20.70;99.90
22838;DHT22;11585;51.450;-0.240;2023-05-28T12:06:52;20.70;99.90
22838;DHT22;11585;51.450;-0.240;2023-05-28T12:12:26;20.90;99.90
22838;DHT22;11585;51.450;-0.240;2023-05-28T12:14:56;20.90;99.90
22838;DHT22;11585;51.450;-0.240;2023-05-28T12:17:23;20.90;99.90
22838;DHT22;11585;51.450;-0.240;2023-05-28T12:19:50;21.00;99.90
22838;DHT22;11585;51.450;-0.240;2023-05-28T12:22:16;21.00;99.90
22838;DHT22;11585;51.450;-0.240;2023-05-28T12:24:51;21.10;99.90
22838;DHT22;11585;51.450;-0.240;2023-05-28T12:27:19;21.10;99.90
22838;DHT22;11585;51.450;-0.240;2023-05-28T12:29:45;21.10;99.90
22838;DHT22;11585;51.450;-0.240;2023-05-28T12:32:10;21.20;99.90
22838;DHT22;11585;51.450;-0.240;2023-05-28T12:34:36;21.20;99.90
22838;DHT22;11585;51.450;-0.240;2023-05-28T12:37:01;21.30;99.90
22838;DHT22;11585;51.450;-0.240;2023-05-28T12:42:50;21.30;99.90
22838;DHT22;11585;51.450;-0.240;2023-05-28T12:48:37;21.40;99.90
22838;DHT22;11585;51.450;-0.240;2023-05-28T12:51:03;21.40;99.90
22838;DHT22;11585;51.450;-0.240;2023-05-28T12:53:28;21.40;99.90
22838;DHT22;11585;51.450;-0.240;2023-05-28T12:55:54;21.40;99.90
22838;DHT22;11585;51.450;-0.240;2023-05-28T12:58:20;21.50;99.90
22838;DHT22;11585;51.450;-0.240;2023-05-28T13:01:05;21.50;99.90
22838;DHT22;11585;51.450;-0.240;2023-05-28T13:03:31;21.60;99.90
22838;DHT22;11585;51.450;-0.240;2023-05-28T13:05:57;21.60;99.90
22838;DHT22;11585;51.450;-0.240;2023-05-28T13:08:23;21.60;99.90
22838;DHT22;11585;51.450;-0.240;2023-05-28T13:13:53;21.60;99.90
22838;DHT22;11585;51.450;-0.240;2023-05-28T13:16:19;21.70;99.90
22838;DHT22;11585;51.450;-0.240;2023-05-28T13:18:45;21.70;99.90
22838;DHT22;11585;51.450;-0.240;2023-05-28T13:21:10;21.70;99.90
22838;DHT22;11585;51.450;-0.240;2023-05-28T13:23:36;21.80;99.90
22838;DHT22;11585;51.450;-0.240;2023-05-28T13:26:02;21.80;99.90
22838;DHT22;11585;51.450;-0.240;2023-05-28T13:28:27;21.80;99.90
22838;DHT22;11585;51.450;-0.240;2023-05-28T13:30:55;21.80;99.90
22838;DHT22;11585;51.450;-0.240;2023-05-28T13:33:21;21.90;99.90
22838;DHT22;11585;51.450;-0.240;2023-05-28T13:35:47;21.90;99.90
22838;DHT22;11585;51.450;-0.240;2023-05-28T13:38:12;21.90;99.90
22838;DHT22;11585;51.450;-0.240;2023-05-28T13:40:40;21.90;99.90
22838;DHT22;11585;51.450;-0.240;2023-05-28T13:43:06;22.00;99.90
22838;DHT22;11585;51.450;-0.240;2023-05-28T13:45:32;22.00;99.90
22838;DHT22;11585;51.450;-0.240;2023-05-28T13:47:59;22.00;99.90
22838;DHT22;11585;51.450;-0.240;2023-05-28T13:50:26;22.00;99.90
22838;DHT22;11585;51.450;-0.240;2023-05-28T13:52:51;22.10;99.90
22838;DHT22;11585;51.450;-0.240;2023-05-28T13:55:17;22.10;99.90
22838;DHT22;11585;51.450;-0.240;2023-05-28T13:57:43;22.10;99.90
22838;DHT22;11585;51.450;-0.240;2023-05-28T14:00:09;22.20;99.90
22838;DHT22;11585;51.450;-0.240;2023-05-28T14:02:36;22.20;99.90
22838;DHT22;11585;51.450;-0.240;2023-05-28T14:05:02;22.20;99.90
22838;DHT22;11585;51.450;-0.240;2023-05-28T14:07:27;22.20;99.90
22838;DHT22;11585;51.450;-0.240;2023-05-28T14:09:53;22.30;99.90
22838;DHT22;11585;51.450;-0.240;2023-05-28T14:12:18;22.30;99.90
22838;DHT22;11585;51.450;-0.240;2023-05-28T14:14:47;22.30;99.90
22838;DHT22;11585;51.450;-0.240;2023-05-28T14:17:13;22.30;99.90
22838;DHT22;11585;51.450;-0.240;2023-05-28T14:19:40;22.30;99.90
22838;DHT22;11585;51.450;-0.240;2023-05-28T14:22:05;22.40;99.90
22838;DHT22;11585;51.450;-0.240;2023-05-28T14:24:31;22.40;99.90
22838;DHT22;11585;51.450;-0.240;2023-05-28T14:26:57;22.40;99.90
22838;DHT22;11585;51.450;-0.240;2023-05-28T14:29:22;22.50;99.90
22838;DHT22;11585;51.450;-0.240;2023-05-28T14:31:48;22.50;99.90
22838;DHT22;11585;51.450;-0.240;2023-05-28T14:34:14;22.50;99.90
22838;DHT22;11585;51.450;-0.240;2023-05-28T14:36:39;22.50;99.90
22838;DHT22;11585;51.450;-0.240;2023-05-28T14:39:25;22.50;99.90
22838;DHT22;11585;51.450;-0.240;2023-05-28T14:41:51;22.50;99.90
22838;DHT22;11585;51.450;-0.240;2023-05-28T14:44:16;22.60;99.90
22838;DHT22;11585;51.450;-0.240;2023-05-28T14:46:42;22.60;99.90
22838;DHT22;11585;51.450;-0.240;2023-05-28T14:49:09;22.60;99.90
22838;DHT22;11585;51.450;-0.240;2023-05-28T14:51:35;22.60;99.90
22838;DHT22;11585;51.450;-0.240;2023-05-28T14:54:01;22.60;99.90
22838;DHT22;11585;51.450;-0.240;2023-05-28T14:56:26;22.60;99.90
22838;DHT22;11585;51.450;-0.240;2023-05-28T15:01:40;22.60;99.90
22838;DHT22;11585;51.450;-0.240;2023-05-28T15:04:06;22.60;99.90
22838;DHT22;11585;51.450;-0.240;2023-05-28T15:06:31;22.60;99.90
22838;DHT22;11585;51.450;-0.240;2023-05-28T15:12:02;22.70;99.90
22838;DHT22;11585;51.450;-0.240;2023-05-28T15:14:28;22.70;99.90
22838;DHT22;11585;51.450;-0.240;2023-05-28T15:16:56;22.70;99.90
22838;DHT22;11585;51.450;-0.240;2023-05-28T15:19:23;22.70;99.90
22838;DHT22;11585;51.450;-0.240;2023-05-28T15:21:49;22.70;99.90
22838;DHT22;11585;51.450;-0.240;2023-05-28T15:24:15;22.70;99.90
22838;DHT22;11585;51.450;-0.240;2023-05-28T15:26:41;22.70;99.90
22838;DHT22;11585;51.450;-0.240;2023-05-28T15:29:11;22.70;99.90
22838;DHT22;11585;51.450;-0.240;2023-05-28T15:31:36;22.70;99.90
22838;DHT22;11585;51.450;-0.240;2023-05-28T15:34:03;22.70;99.90
22838;DHT22;11585;51.450;-0.240;2023-05-28T15:36:28;22.70;99.90
22838;DHT22;11585;51.450;-0.240;2023-05-28T15:39:13;22.70;99.90
22838;DHT22;11585;51.450;-0.240;2023-05-28T15:41:41;22.70;99.90
22838;DHT22;11585;51.450;-0.240;2023-05-28T15:44:07;22.70;99.90
22838;DHT22;11585;51.450;-0.240;2023-05-28T15:46:33;22.70;99.90
22838;DHT22;11585;51.450;-0.240;2023-05-28T15:49:20;22.70;99.90
22838;DHT22;11585;51.450;-0.240;2023-05-28T15:51:45;22.70;99.90
22838;DHT22;11585;51.450;-0.240;2023-05-28T15:54:11;22.70;99.90
22838;DHT22;11585;51.450;-0.240;2023-05-28T15:56:38;22.70;99.90
22838;DHT22;11585;51.450;-0.240;2023-05-28T15:59:23;22.70;99.90
22838;DHT22;11585;51.450;-0.240;2023-05-28T16:01:50;22.70;99.90
22838;DHT22;11585;51.450;-0.240;2023-05-28T16:04:21;22.70;99.90
22838;DHT22;11585;51.450;-0.240;2023-05-28T16:06:47;22.60;99.90
22838;DHT22;11585;51.450;-0.240;2023-05-28T16:09:14;22.70;99.90
22838;DHT22;11585;51.450;-0.240;2023-05-28T16:11:43;22.60;99.90
22838;DHT22;11585;51.450;-0.240;2023-05-28T16:14:14;22.60;99.90
22838;DHT22;11585;51.450;-0.240;2023-05-28T16:16:41;22.60;99.90
22838;DHT22;11585;51.450;-0.240;2023-05-28T16:19:10;22.60;99.90
22838;DHT22;11585;51.450;-0.240;2023-05-28T16:21:36;22.60;99.90
22838;DHT22;11585;51.450;-0.240;2023-05-28T16:24:02;22.60;99.90
22838;DHT22;11585;51.450;-0.240;2023-05-28T16:26:28;22.60;99.90
22838;DHT22;11585;51.450;-0.240;2023-05-28T16:29:14;22.60;99.90
22838;DHT22;11585;51.450;-0.240;2023-05-28T16:31:40;22.60;99.90
22838;DHT22;11585;51.450;-0.240;2023-05-28T16:34:06;22.50;99.90
22838;DHT22;11585;51.450;-0.240;2023-05-28T16:36:31;22.50;99.90
22838;DHT22;11585;51.450;-0.240;2023-05-28T16:39:18;22.50;99.90
22838;DHT22;11585;51.450;-0.240;2023-05-28T16:41:44;22.50;99.90
22838;DHT22;11585;51.450;-0.240;2023-05-28T16:44:10;22.50;99.90
22838;DHT22;11585;51.450;-0.240;2023-05-28T16:46:36;22.50;99.90
22838;DHT22;11585;51.450;-0.240;2023-05-28T16:49:05;22.50;99.90